createdAt,value
2023-02-06T00:00:35.551Z,100599.69
2023-02-06T00:03:02.359Z,100597.59
2023-02-06T00:05:28.879Z,100598.63
2023-02-06T00:07:55.391Z,100593.66
2023-02-06T00:10:21.934Z,100605.50
2023-02-06T00:12:48.671Z,100605.69
2023-02-06T00:15:15.466Z,100605.25
2023-02-06T00:17:42.056Z,100606.28
2023-02-06T00:20:10.400Z,100604.78
2023-02-06T00:22:37.279Z,100610.91
2023-02-06T00:25:04.192Z,100607.34
2023-02-06T00:27:30.959Z,100605.59
2023-02-06T00:29:58.545Z,100605.97
2023-02-06T00:32:25.224Z,100612.09
2023-02-06T00:34:51.688Z,100616.38
2023-02-06T00:37:18.180Z,100621.00
2023-02-06T00:39:44.655Z,100616.06
2023-02-06T00:42:11.095Z,100612.56
2023-02-06T00:44:38.030Z,100622.22
2023-02-06T00:47:04.479Z,100622.78
2023-02-06T00:49:30.944Z,100620.00
2023-02-06T00:51:57.404Z,100621.13
2023-02-06T00:54:23.851Z,100629.53
2023-02-06T00:56:50.322Z,100622.34
2023-02-06T00:59:16.835Z,100629.19
2023-02-06T01:01:43.284Z,100627.03
2023-02-06T01:04:09.764Z,100624.00
2023-02-06T01:06:37.738Z,100624.72
2023-02-06T01:09:04.566Z,100632.25
2023-02-06T01:11:31.078Z,100630.47
2023-02-06T01:14:00.564Z,100629.06
2023-02-06T01:16:27.687Z,100638.19
2023-02-06T01:18:54.763Z,100630.34
2023-02-06T01:21:24.766Z,100629.59
2023-02-06T01:23:53.432Z,100631.13
2023-02-06T01:26:23.268Z,100624.25
2023-02-06T01:28:50.623Z,100632.34
2023-02-06T01:31:20.851Z,100632.97
2023-02-06T01:33:48.453Z,100627.50
2023-02-06T01:36:16.152Z,100631.69
2023-02-06T01:38:43.047Z,100631.78
2023-02-06T01:41:11.108Z,100630.47
2023-02-06T01:43:40.575Z,100628.03
2023-02-06T01:46:07.692Z,100628.88
2023-02-06T01:48:38.895Z,100624.56
2023-02-06T01:51:08.790Z,100628.53
2023-02-06T01:53:35.976Z,100622.00
2023-02-06T01:56:06.375Z,100631.31
2023-02-06T01:58:37.483Z,100628.91
2023-02-06T02:01:06.085Z,100616.34
2023-02-06T02:03:36.830Z,100620.81
2023-02-06T02:06:10.109Z,100616.06
2023-02-06T02:08:42.908Z,100614.56
2023-02-06T02:11:13.980Z,100616.31
2023-02-06T02:13:40.511Z,100601.34
2023-02-06T02:16:25.663Z,100601.34
2023-02-06T02:19:11.575Z,100599.47
2023-02-06T02:22:07.448Z,100603.56
2023-02-06T02:24:55.720Z,100604.50
2023-02-06T02:27:44.008Z,100603.09
2023-02-06T02:30:31.460Z,100602.72
2023-02-06T02:33:11.482Z,100594.56
2023-02-06T02:35:59.578Z,100592.56
2023-02-06T02:38:42.893Z,100591.75
2023-02-06T02:41:18.963Z,100597.69
2023-02-06T02:43:53.889Z,100591.94
2023-02-06T02:46:27.856Z,100597.16
2023-02-06T02:49:01.003Z,100599.28
2023-02-06T02:51:27.571Z,100598.81
2023-02-06T02:53:57.555Z,100588.00
2023-02-06T02:56:25.916Z,100590.25
2023-02-06T02:58:59.230Z,100593.91
2023-02-06T03:01:35.325Z,100590.81
2023-02-06T03:04:10.088Z,100600.00
2023-02-06T03:06:48.610Z,100600.50
2023-02-06T03:09:35.929Z,100606.16
2023-02-06T03:12:41.297Z,100602.25
2023-02-06T03:15:22.337Z,100606.34
2023-02-06T03:18:06.916Z,100603.66
2023-02-06T03:20:34.917Z,100600.22
2023-02-06T03:23:04.049Z,100598.91
2023-02-06T03:25:36.236Z,100611.03
2023-02-06T03:28:10.707Z,100605.63
2023-02-06T03:30:39.931Z,100609.44
2023-02-06T03:33:10.251Z,100606.06
2023-02-06T03:35:38.691Z,100603.72
2023-02-06T03:38:07.378Z,100612.41
2023-02-06T03:40:34.952Z,100622.50
2023-02-06T03:43:03.916Z,100612.25
2023-02-06T03:45:44.105Z,100618.00
2023-02-06T03:48:19.411Z,100626.28
2023-02-06T03:50:50.085Z,100614.66
2023-02-06T03:53:18.798Z,100623.25
2023-02-06T03:55:47.237Z,100607.88
2023-02-06T03:58:14.638Z,100600.19
2023-02-06T04:00:44.349Z,100599.72
2023-02-06T04:03:12.931Z,100602.69
2023-02-06T04:05:40.227Z,100597.63
2023-02-06T04:08:06.965Z,100596.31
2023-02-06T04:10:33.737Z,100593.00
2023-02-06T04:13:00.232Z,100598.13
2023-02-06T04:15:26.657Z,100606.75
2023-02-06T04:18:00.319Z,100605.63
2023-02-06T04:20:27.645Z,100608.53
2023-02-06T04:22:54.235Z,100600.16
2023-02-06T04:25:20.693Z,100602.91
2023-02-06T04:27:47.244Z,100606.03
2023-02-06T04:30:15.436Z,100603.75
2023-02-06T04:32:41.936Z,100601.81
2023-02-06T04:35:08.576Z,100598.47
2023-02-06T04:37:35.084Z,100588.78
2023-02-06T04:40:01.588Z,100594.81
2023-02-06T04:42:28.044Z,100596.91
2023-02-06T04:44:54.531Z,100614.09
2023-02-06T04:47:21.045Z,100617.53
2023-02-06T04:49:47.545Z,100612.53
2023-02-06T04:52:14.028Z,100610.78
2023-02-06T04:54:40.533Z,100607.91
2023-02-06T04:57:07.063Z,100619.59
2023-02-06T04:59:33.519Z,100609.34
2023-02-06T05:02:00.045Z,100614.09
2023-02-06T05:04:26.656Z,100626.22
2023-02-06T05:06:53.100Z,100621.13
2023-02-06T05:09:19.522Z,100616.56
2023-02-06T05:11:46.011Z,100620.03
2023-02-06T05:14:12.461Z,100624.50
2023-02-06T05:16:39.022Z,100624.28
2023-02-06T05:19:05.465Z,100618.34
2023-02-06T05:21:31.938Z,100620.44
2023-02-06T05:23:58.403Z,100618.06
2023-02-06T05:26:24.936Z,100619.31
2023-02-06T05:28:51.623Z,100619.88
2023-02-06T05:31:20.024Z,100618.03
2023-02-06T05:33:51.777Z,100617.75
2023-02-06T05:36:19.558Z,100624.09
2023-02-06T05:38:46.867Z,100626.63
2023-02-06T05:41:13.360Z,100623.81
2023-02-06T05:43:39.838Z,100628.13
2023-02-06T05:46:06.366Z,100627.91
2023-02-06T05:48:34.769Z,100628.50
2023-02-06T05:51:01.905Z,100628.41
2023-02-06T05:53:28.433Z,100634.34
2023-02-06T05:55:55.499Z,100622.72
2023-02-06T05:58:21.992Z,100622.00
2023-02-06T06:00:48.425Z,100625.34
2023-02-06T06:03:14.889Z,100622.78
2023-02-06T06:05:41.347Z,100621.97
2023-02-06T06:08:07.800Z,100619.88
2023-02-06T06:10:34.463Z,100624.97
2023-02-06T06:13:00.976Z,100622.47
2023-02-06T06:15:27.418Z,100623.06
2023-02-06T06:17:53.874Z,100624.22
2023-02-06T06:20:20.375Z,100620.09
2023-02-06T06:22:46.848Z,100615.31
2023-02-06T06:25:13.302Z,100619.09
2023-02-06T06:27:39.937Z,100616.03
2023-02-06T06:30:07.001Z,100610.16
2023-02-06T06:32:33.449Z,100613.03
2023-02-06T06:34:59.889Z,100617.66
2023-02-06T06:37:26.365Z,100612.84
2023-02-06T06:39:52.830Z,100618.00
2023-02-06T06:42:19.253Z,100619.28
2023-02-06T06:44:45.695Z,100629.66
2023-02-06T06:47:12.154Z,100635.47
2023-02-06T06:49:39.035Z,100630.84
2023-02-06T06:52:08.845Z,100624.63
2023-02-06T06:54:40.009Z,100608.41
2023-02-06T06:57:06.905Z,100612.03
2023-02-06T06:59:33.360Z,100614.63
2023-02-06T07:01:59.818Z,100634.38
2023-02-06T07:04:30.204Z,100628.44
2023-02-06T07:06:56.632Z,100633.69
2023-02-06T07:09:23.377Z,100632.50
2023-02-06T07:11:49.823Z,100634.25
2023-02-06T07:14:17.038Z,100618.19
2023-02-06T07:16:43.575Z,100619.63
2023-02-06T07:19:10.197Z,100625.94
2023-02-06T07:21:36.677Z,100628.38
2023-02-06T07:24:04.586Z,100620.31
2023-02-06T07:26:31.433Z,100627.16
2023-02-06T07:28:57.874Z,100628.38
2023-02-06T07:31:24.373Z,100629.59
2023-02-06T07:33:50.846Z,100627.91
2023-02-06T07:36:18.445Z,100626.53
2023-02-06T07:38:45.101Z,100635.22
2023-02-06T07:41:12.751Z,100637.38
2023-02-06T07:43:39.482Z,100639.69
2023-02-06T07:46:06.384Z,100647.19
2023-02-06T07:48:33.133Z,100646.03
2023-02-06T07:51:08.316Z,100646.91
2023-02-06T07:53:35.718Z,100638.56
2023-02-06T07:56:02.366Z,100635.72
2023-02-06T07:58:28.956Z,100638.06
2023-02-06T08:00:55.987Z,100643.00
2023-02-06T08:03:22.444Z,100642.06
2023-02-06T08:05:49.017Z,100635.72
2023-02-06T08:08:15.524Z,100631.50
2023-02-06T08:10:42.123Z,100631.19
2023-02-06T08:13:08.674Z,100628.59
2023-02-06T08:15:35.454Z,100631.41
2023-02-06T08:18:02.153Z,100626.34
2023-02-06T08:20:28.677Z,100620.13
2023-02-06T08:22:55.278Z,100626.34
2023-02-06T08:25:21.756Z,100629.94
2023-02-06T08:27:52.572Z,100616.97
2023-02-06T08:30:19.167Z,100615.97
2023-02-06T08:32:45.619Z,100623.03
2023-02-06T08:35:12.151Z,100623.13
2023-02-06T08:37:38.616Z,100621.47
2023-02-06T08:40:05.499Z,100623.13
2023-02-06T08:42:31.940Z,100623.72
2023-02-06T08:44:58.580Z,100624.44
2023-02-06T08:47:25.100Z,100627.06
2023-02-06T08:49:51.683Z,100637.59
2023-02-06T08:52:18.192Z,100637.38
2023-02-06T08:54:44.767Z,100634.13
2023-02-06T08:57:12.812Z,100633.38
2023-02-06T08:59:39.525Z,100622.75
2023-02-06T09:02:08.249Z,100623.84
2023-02-06T09:04:37.605Z,100629.28
2023-02-06T09:07:04.084Z,100631.28
2023-02-06T09:09:30.577Z,100626.94
2023-02-06T09:12:02.113Z,100636.63
2023-02-06T09:14:29.371Z,100631.16
2023-02-06T09:16:58.082Z,100634.50
2023-02-06T09:19:25.253Z,100626.88
2023-02-06T09:21:51.742Z,100626.00
2023-02-06T09:24:18.464Z,100636.38
2023-02-06T09:26:58.918Z,100624.25
2023-02-06T09:29:28.965Z,100617.88
2023-02-06T09:31:57.318Z,100627.34
2023-02-06T09:34:25.785Z,100618.38
2023-02-06T09:36:54.455Z,100625.63
2023-02-06T09:39:21.206Z,100617.34
2023-02-06T09:41:52.225Z,100622.41
2023-02-06T09:44:25.501Z,100611.31
2023-02-06T09:47:28.478Z,100620.69
2023-02-06T09:49:59.601Z,100618.66
2023-02-06T09:52:47.334Z,100620.69
2023-02-06T09:55:25.803Z,100613.22
2023-02-06T09:58:22.474Z,100620.81
2023-02-06T10:00:54.771Z,100618.25
2023-02-06T10:03:46.109Z,100610.47
2023-02-06T10:06:30.009Z,100619.38
2023-02-06T10:09:16.140Z,100612.88
2023-02-06T10:11:48.260Z,100617.94
2023-02-06T10:14:30.777Z,100620.06
2023-02-06T10:17:01.236Z,100616.22
2023-02-06T10:19:30.569Z,100622.66
2023-02-06T10:22:21.052Z,100614.34
2023-02-06T10:25:21.143Z,100610.78
2023-02-06T10:27:55.084Z,100602.16
2023-02-06T10:30:33.089Z,100591.78
2023-02-06T10:33:24.028Z,100584.75
2023-02-06T10:36:02.821Z,100583.88
2023-02-06T10:39:07.683Z,100571.94
2023-02-06T10:41:45.756Z,100571.13
2023-02-06T10:44:25.275Z,100561.31
2023-02-06T10:46:54.441Z,100572.41
2023-02-06T10:49:36.709Z,100568.75
2023-02-06T10:52:18.137Z,100573.88
2023-02-06T10:54:51.987Z,100571.56
2023-02-06T10:57:22.048Z,100568.94
2023-02-06T10:59:53.955Z,100557.56
2023-02-06T11:03:06.783Z,100555.56
2023-02-06T11:05:34.256Z,100563.63
2023-02-06T11:08:25.200Z,100557.28
2023-02-06T11:10:52.404Z,100555.94
2023-02-06T11:13:26.841Z,100546.47
2023-02-06T11:16:10.424Z,100553.16
2023-02-06T11:18:40.338Z,100545.38
2023-02-06T11:21:12.760Z,100544.00
2023-02-06T11:23:40.226Z,100538.38
2023-02-06T11:26:10.806Z,100531.53
2023-02-06T11:28:52.335Z,100523.22
2023-02-06T11:31:21.328Z,100526.56
2023-02-06T11:33:51.750Z,100513.91
2023-02-06T11:36:32.440Z,100506.72
2023-02-06T11:39:02.605Z,100494.66
2023-02-06T11:41:30.188Z,100492.66
2023-02-06T11:44:02.646Z,100505.56
2023-02-06T11:46:38.791Z,100501.00
2023-02-06T11:49:24.512Z,100498.91
2023-02-06T11:51:54.494Z,100500.06
2023-02-06T11:54:23.149Z,100489.97
2023-02-06T11:56:58.576Z,100482.91
2023-02-06T11:59:27.018Z,100489.44
2023-02-06T12:01:53.686Z,100481.63
2023-02-06T12:04:34.648Z,100479.78
2023-02-06T12:07:03.018Z,100470.53
2023-02-06T12:09:29.566Z,100462.44
2023-02-06T12:12:17.450Z,100467.06
2023-02-06T12:14:51.307Z,100467.97
2023-02-06T12:17:39.949Z,100458.53
2023-02-06T12:20:14.287Z,100454.47
2023-02-06T12:22:46.096Z,100459.34
2023-02-06T12:25:32.957Z,100453.66
2023-02-06T12:28:10.363Z,100457.81
2023-02-06T12:30:51.412Z,100456.41
2023-02-06T12:33:36.091Z,100456.59
2023-02-06T12:36:07.339Z,100448.50
2023-02-06T12:38:55.675Z,100453.19
2023-02-06T12:41:41.111Z,100456.56
2023-02-06T12:44:35.007Z,100450.31
2023-02-06T12:47:24.125Z,100437.81
2023-02-06T12:49:57.873Z,100434.34
2023-02-06T12:52:31.114Z,100444.44
2023-02-06T12:55:22.493Z,100437.22
2023-02-06T12:57:49.522Z,100438.53
2023-02-06T13:00:45.640Z,100432.78
2023-02-06T13:03:40.724Z,100440.81
2023-02-06T13:06:10.122Z,100436.09
2023-02-06T13:08:36.495Z,100430.03
2023-02-06T13:11:06.875Z,100438.72
2023-02-06T13:13:37.906Z,100442.09
2023-02-06T13:16:05.835Z,100437.84
2023-02-06T13:18:41.486Z,100431.59
2023-02-06T13:21:24.099Z,100426.09
2023-02-06T13:24:12.581Z,100427.69
2023-02-06T13:26:56.420Z,100423.81
2023-02-06T13:29:28.310Z,100422.81
2023-02-06T13:32:13.026Z,100416.03
2023-02-06T13:34:51.288Z,100403.25
2023-02-06T13:37:37.731Z,100408.91
2023-02-06T13:40:22.529Z,100407.88
2023-02-06T13:43:07.386Z,100417.28
2023-02-06T13:45:58.393Z,100406.47
2023-02-06T13:48:24.869Z,100405.94
2023-02-06T13:51:13.949Z,100402.56
2023-02-06T13:54:26.681Z,100417.41
2023-02-06T13:57:18.022Z,100410.97
2023-02-06T14:00:10.738Z,100396.13
2023-02-06T14:02:44.200Z,100393.22
2023-02-06T14:05:14.860Z,100398.38
2023-02-06T14:08:01.099Z,100410.53
2023-02-06T14:11:10.776Z,100411.03
2023-02-06T14:14:17.579Z,100409.44
2023-02-06T14:17:07.482Z,100399.41
2023-02-06T14:19:55.983Z,100403.66
2023-02-06T14:22:40.927Z,100409.00
2023-02-06T14:25:22.338Z,100406.53
2023-02-06T14:28:06.401Z,100411.63
2023-02-06T14:30:53.977Z,100414.53
2023-02-06T14:33:32.272Z,100412.47
2023-02-06T14:36:33.066Z,100415.91
2023-02-06T14:39:42.740Z,100407.50
2023-02-06T14:42:16.287Z,100400.75
2023-02-06T14:44:45.011Z,100402.81
2023-02-06T14:47:19.405Z,100398.41
2023-02-06T14:49:47.412Z,100390.72
2023-02-06T14:52:23.209Z,100390.28
2023-02-06T14:54:50.331Z,100393.28
2023-02-06T14:57:21.674Z,100395.94
2023-02-06T14:59:53.951Z,100399.41
2023-02-06T15:02:28.487Z,100399.66
2023-02-06T15:04:55.971Z,100389.50
2023-02-06T15:07:27.628Z,100396.09
2023-02-06T15:10:02.097Z,100383.03
2023-02-06T15:12:29.117Z,100379.16
2023-02-06T15:15:02.554Z,100366.38
2023-02-06T15:17:30.384Z,100363.69
2023-02-06T15:19:57.198Z,100363.19
2023-02-06T15:22:28.247Z,100371.97
2023-02-06T15:25:28.519Z,100365.16
2023-02-06T15:28:07.126Z,100365.41
2023-02-06T15:30:35.799Z,100361.25
2023-02-06T15:33:03.320Z,100360.72
2023-02-06T15:35:41.309Z,100372.38
2023-02-06T15:38:13.278Z,100369.81
2023-02-06T15:40:44.385Z,100371.50
2023-02-06T15:43:17.046Z,100364.84
2023-02-06T15:45:44.999Z,100364.13
2023-02-06T15:48:18.121Z,100366.25
2023-02-06T15:51:20.165Z,100368.47
2023-02-06T15:53:48.726Z,100358.31
2023-02-06T15:56:20.936Z,100356.41
2023-02-06T15:58:49.491Z,100364.25
2023-02-06T16:01:20.082Z,100367.84
2023-02-06T16:03:52.006Z,100365.06
2023-02-06T16:06:18.625Z,100358.75
2023-02-06T16:08:57.081Z,100366.06
2023-02-06T16:11:50.816Z,100373.84
2023-02-06T16:14:33.796Z,100372.19
2023-02-06T16:17:05.793Z,100373.84
2023-02-06T16:19:56.332Z,100363.00
2023-02-06T16:22:37.991Z,100376.47
2023-02-06T16:25:29.939Z,100367.88
2023-02-06T16:27:56.871Z,100376.16
2023-02-06T16:30:32.927Z,100384.00
2023-02-06T16:33:09.652Z,100382.44
2023-02-06T16:35:36.105Z,100388.09
2023-02-06T16:38:02.619Z,100397.00
2023-02-06T16:40:29.134Z,100389.53
2023-02-06T16:42:55.770Z,100397.50
2023-02-06T16:45:26.257Z,100388.91
2023-02-06T16:47:53.974Z,100404.06
2023-02-06T16:50:21.678Z,100406.59
2023-02-06T16:52:54.412Z,100400.72
2023-02-06T16:55:25.628Z,100405.50
2023-02-06T16:57:59.140Z,100407.19
2023-02-06T17:00:31.600Z,100402.06
2023-02-06T17:02:58.750Z,100392.06
2023-02-06T17:05:27.209Z,100390.69
2023-02-06T17:07:54.871Z,100405.84
2023-02-06T17:10:24.748Z,100419.34
2023-02-06T17:12:51.419Z,100412.34
2023-02-06T17:15:19.073Z,100414.63
2023-02-06T17:17:45.540Z,100410.88
2023-02-06T17:20:30.129Z,100401.25
2023-02-06T17:22:56.757Z,100403.25
2023-02-06T17:25:23.185Z,100404.81
2023-02-06T17:27:49.643Z,100410.75
2023-02-06T17:30:18.660Z,100417.47
2023-02-06T17:32:45.212Z,100416.50
2023-02-06T17:35:12.145Z,100419.00
2023-02-06T17:37:38.727Z,100421.00
2023-02-06T17:40:06.528Z,100410.38
2023-02-06T17:42:33.649Z,100415.03
2023-02-06T17:45:00.173Z,100411.06
2023-02-06T17:47:26.718Z,100415.13
2023-02-06T17:49:53.214Z,100409.16
2023-02-06T17:52:19.716Z,100397.50
2023-02-06T17:54:46.249Z,100404.88
2023-02-06T17:57:13.600Z,100405.09
2023-02-06T17:59:40.170Z,100402.41
2023-02-06T18:02:06.763Z,100400.69
2023-02-06T18:04:33.312Z,100397.38
2023-02-06T18:06:59.758Z,100399.69
2023-02-06T18:09:26.183Z,100396.63
2023-02-06T18:11:52.700Z,100400.69
2023-02-06T18:14:19.125Z,100392.53
2023-02-06T18:16:47.003Z,100394.06
2023-02-06T18:19:13.670Z,100397.75
2023-02-06T18:21:40.087Z,100394.78
2023-02-06T18:24:07.318Z,100402.28
2023-02-06T18:26:33.757Z,100398.50
2023-02-06T18:29:04.073Z,100392.94
2023-02-06T18:31:35.477Z,100386.16
2023-02-06T18:34:04.779Z,100377.97
2023-02-06T18:36:31.178Z,100388.16
2023-02-06T18:38:57.744Z,100379.16
2023-02-06T18:41:42.785Z,100380.06
2023-02-06T18:44:10.929Z,100376.44
2023-02-06T18:46:38.051Z,100377.50
2023-02-06T18:49:05.506Z,100369.69
2023-02-06T18:51:33.122Z,100369.38
2023-02-06T18:54:00.190Z,100375.91
2023-02-06T18:56:26.919Z,100376.84
2023-02-06T18:58:53.422Z,100379.53
2023-02-06T19:01:24.897Z,100376.84
2023-02-06T19:03:52.729Z,100369.31
2023-02-06T19:06:22.632Z,100368.06
2023-02-06T19:08:49.739Z,100373.03
2023-02-06T19:11:16.732Z,100373.94
2023-02-06T19:13:43.450Z,100371.81
2023-02-06T19:16:15.770Z,100377.94
2023-02-06T19:18:44.955Z,100376.63
2023-02-06T19:21:17.584Z,100362.78
2023-02-06T19:23:45.653Z,100371.81
2023-02-06T19:26:15.064Z,100377.41
2023-02-06T19:28:42.292Z,100378.13
2023-02-06T19:31:10.430Z,100375.81
2023-02-06T19:33:38.428Z,100373.38
2023-02-06T19:36:10.137Z,100370.50
2023-02-06T19:38:36.621Z,100372.81
2023-02-06T19:41:29.848Z,100373.28
2023-02-06T19:43:57.793Z,100376.91
2023-02-06T19:46:26.443Z,100384.63
2023-02-06T19:48:54.066Z,100382.50
2023-02-06T19:51:26.554Z,100382.38
2023-02-06T19:53:54.491Z,100368.47
2023-02-06T19:56:24.230Z,100380.44
2023-02-06T19:59:18.826Z,100379.66
2023-02-06T20:01:56.308Z,100386.25
2023-02-06T20:04:25.472Z,100391.06
2023-02-06T20:06:53.770Z,100384.03
2023-02-06T20:09:20.880Z,100393.28
2023-02-06T20:11:48.950Z,100401.44
2023-02-06T20:14:16.369Z,100404.56
2023-02-06T20:16:43.718Z,100399.75
2023-02-06T20:19:20.321Z,100396.59
2023-02-06T20:21:49.875Z,100415.97
2023-02-06T20:24:20.994Z,100414.38
2023-02-06T20:26:50.008Z,100433.81
2023-02-06T20:29:28.918Z,100429.06
2023-02-06T20:31:56.124Z,100421.78
2023-02-06T20:34:23.541Z,100428.59
2023-02-06T20:36:50.857Z,100434.34
2023-02-06T20:39:18.230Z,100417.16
2023-02-06T20:41:45.788Z,100428.34
2023-02-06T20:44:13.561Z,100432.38
2023-02-06T20:46:40.362Z,100424.63
2023-02-06T20:49:12.081Z,100424.16
2023-02-06T20:51:38.534Z,100419.69
2023-02-06T20:54:06.443Z,100431.88
2023-02-06T20:56:33.299Z,100435.31
2023-02-06T20:59:01.111Z,100430.38
2023-02-06T21:01:30.563Z,100413.69
2023-02-06T21:04:09.046Z,100416.44
2023-02-06T21:06:36.996Z,100406.81
2023-02-06T21:09:05.287Z,100410.34
2023-02-06T21:11:35.287Z,100419.16
2023-02-06T21:14:03.803Z,100422.66
2023-02-06T21:16:32.218Z,100422.00
2023-02-06T21:18:59.776Z,100425.53
2023-02-06T21:21:27.264Z,100418.72
2023-02-06T21:23:57.115Z,100434.91
2023-02-06T21:26:25.021Z,100423.09
2023-02-06T21:28:51.918Z,100430.06
2023-02-06T21:31:37.225Z,100428.44
2023-02-06T21:34:16.403Z,100420.06
2023-02-06T21:36:43.686Z,100426.25
2023-02-06T21:39:15.164Z,100430.78
2023-02-06T21:41:43.438Z,100434.41
2023-02-06T21:44:09.968Z,100420.72
2023-02-06T21:46:36.908Z,100428.44
2023-02-06T21:49:03.816Z,100416.03
2023-02-06T21:51:30.640Z,100429.47
2023-02-06T21:53:57.142Z,100424.38
2023-02-06T21:56:26.276Z,100422.22
2023-02-06T21:58:52.961Z,100422.88
2023-02-06T22:01:28.819Z,100423.22
2023-02-06T22:03:57.213Z,100414.22
2023-02-06T22:06:23.706Z,100415.97
2023-02-06T22:08:52.588Z,100413.38
2023-02-06T22:11:22.600Z,100419.16
2023-02-06T22:13:50.101Z,100419.50
2023-02-06T22:16:20.412Z,100416.53
2023-02-06T22:18:47.225Z,100418.88
2023-02-06T22:21:19.959Z,100418.84
2023-02-06T22:23:48.289Z,100412.28
2023-02-06T22:26:17.474Z,100423.41
2023-02-06T22:28:45.082Z,100426.78
2023-02-06T22:31:14.794Z,100418.31
2023-02-06T22:33:42.006Z,100414.41
2023-02-06T22:36:12.124Z,100416.78
2023-02-06T22:38:39.193Z,100407.78
2023-02-06T22:41:09.983Z,100411.50
2023-02-06T22:43:38.290Z,100415.38
2023-02-06T22:46:06.291Z,100414.75
2023-02-06T22:48:32.930Z,100417.16
2023-02-06T22:51:07.471Z,100414.09
2023-02-06T22:53:34.040Z,100415.00
2023-02-06T22:56:34.802Z,100410.84
2023-02-06T22:59:14.902Z,100414.41
2023-02-06T23:01:53.644Z,100413.09
2023-02-06T23:04:25.357Z,100419.75
2023-02-06T23:06:52.876Z,100427.63
2023-02-06T23:09:22.737Z,100426.66
2023-02-06T23:11:49.709Z,100422.97
2023-02-06T23:14:17.011Z,100419.13
2023-02-06T23:16:43.763Z,100411.72
2023-02-06T23:19:12.115Z,100421.44
2023-02-06T23:21:41.198Z,100435.56
2023-02-06T23:24:09.620Z,100418.75
2023-02-06T23:26:36.919Z,100440.91
2023-02-06T23:29:07.628Z,100424.44
2023-02-06T23:31:34.683Z,100423.34
2023-02-06T23:34:01.690Z,100433.28
2023-02-06T23:36:29.108Z,100422.22
2023-02-06T23:38:56.089Z,100433.59
2023-02-06T23:41:27.957Z,100425.56
2023-02-06T23:43:57.242Z,100435.19
2023-02-06T23:46:24.380Z,100441.75
2023-02-06T23:48:51.425Z,100437.41
2023-02-06T23:51:18.782Z,100437.31
2023-02-06T23:53:45.248Z,100431.44
2023-02-06T23:56:19.762Z,100438.16
2023-02-06T23:58:46.622Z,100438.16
